Aérodrome :
LOGIN :

S'inscrire | Disclaimer

   EN    FR    IT 

 










Légende :    VFR   VFR Marginal   IFR   IFR Intensif   IFR Très Intensif
Visi : 
Plafond : 
>= 8 km
>= 3000ft
5 à 8 km
1000 à 3000 ft
1500m à 5 km
500 à 1000 ft
800 à 1500m
200 à 500 ft
< 800m
< 200 ft
Symboles :   Orages  Brouillard  Fortes neiges  Fortes précipitations  Vent > 20 kt
SIGMETs :   Divers  Orages  Givrage  Turbulence  Onde Orograph.  Cendres Volcan.






- Altitude de l'aérodrome : 821 ft
- Code IATA : LYS


LFLL - Lyon St Exupéry / Satolas

DERNIER METAR :
  • 210300Z 31003KT 270V340 9999 BKN022 14/12 Q1015 NOSIG

METARs EXPIRÉS :
  • 210230Z 30002KT 9999 BKN023 BKN033 14/12 Q1014 NOSIG
  • 210200Z 24004KT 220V280 9999 BKN026 BKN034 14/12 Q1014 NOSIG
  • 210130Z 23007KT 9999 SCT024 BKN034 14/13 Q1014 NOSIG
  • 210100Z VRB04KT 9999 SCT020 BKN030 14/14 Q1013 NOSIG
  • 210030Z 24005KT 200V290 9999 SCT016 BKN076 14/14 Q1013 NOSIG

TAF TAF LFLL
Valide du 21 à 00h jusqu'au 22 à 06h UTC


202300Z 2100/2206 22010KT 9999 BKN050
PROB40
TEMPO 2100/2103 RA
PROB30
TEMPO 2103/2106 BKN013
BECMG 2108/2110 01005KT BKN014 OVC040
TEMPO 2108/2124 RA
TEMPO 2202/2206 3000 BR OVC008



MET'MAP, la Météo Aéronautique d'un coup d'oeil ! - Copyright ORBIFLY Décembre 2007 - Disclaimer

ORBIFLY MET'MAP TEAM :

Programmation & Développement : Alexandra Zaïnal
Conception & Développement : Baudouin d'Aumeries
Co-Programmation & Développement : Marc-Olivier Méhu
Soutien technique & logistique : Manuel Goepfert

Contact : metmap@orbifly.com




SOURCES & CREDITS :

   NOAA